Lewellen, Nebraska
Current Conditions -  °F | °C
As of 9:35 AM on Friday 24 Oct 2014 (Local Time) from KOGA Reporting Station
Clear Clear  
Wind Chill: 58°   Ceiling: Unl
Heat Index: 58°   Visibility: 10mi
Dew Point: 41°   Wind: 6mph
Humidity: 53%   Direction: 250°WSW
Pressure: 30.06"   Gusts: NA
Location:  41.33°N, 102.14°W
Report Text: KOGA 241535Z AUTO 25005KT 10SM CLR 15/05 A3006 RMK AO2 T01450051
Loading
Personal Weather Stations






























Interactive Weather Map
Tropical Storm Tracking
New forecast layout! Learn more

10-Day Weather Forecast

Advertisements
Track Severe Weather on mobile